Radar AviationWeather DUATS TFRs Wunderground Accuweather Weather.com

alt : Radar

TAFs

KDTW 251126Z 2512/2618 25020G35KT P6SM SCT018 BKN025
   FM251500 24020G30KT P6SM SCT030
   FM251800 24015G25KT P6SM FEW035
   FM252300 25010KT P6SM SKC
KJXN 251122Z 2512/2612 25025G35KT P6SM BKN015 OVC025
   FM251300 25022G36KT P6SM BKN025
   FM251600 25024G38KT P6SM BKN035
   FM260100 22008KT P6SM SKC WS020/26040KT
KCLE 251106Z 2511/2612 24022G42KT P6SM SCT008 BKN035
   FM252200 25012G20KT P6SM SCT035
KTOL 250936Z 2510/2606 20012KT 3SM -RA BR OVC015 WS020/22055KT
   FM251015 24025G45KT P6SM BKN015
   FM251400 25020G30KT P6SM SCT050
KFDY 250741Z 2508/2606 16015G25KT P6SM SCT005 BKN045
   FM250830 20018G35KT P6SM BKN015 OVC025
   FM251000 25020G45KT P6SM SCT009 BKN030
   FM251400 25020G30KT P6SM SCT050
KFWA 250728Z 2507/2606 18014G23KT P6SM SCT015 OVC040 WS020/20050KT
     TEMPO 2507/2508 6SM -SHRA BR BKN015
   FM250800 22020G31KT 5SM -DZ BR BKN008 WS020/23050KT
   FM250830 25024G44KT P6SM BKN009
   FM251000 25023G33KT P6SM BKN015
   FM251200 26020G29KT P6SM BKN025
   FM251400 26018G28KT P6SM SCT025
   FM260100 25008KT P6SM SKC

METARs

KDUH 251115Z AUTO 25018G27KT 230V290 10SM BKN030 BKN035 09/05 A2962 RMK AO2 T00910050
KTOL 251104Z 24026G36KT 10SM SCT023 09/06 A2962 RMK AO2 PK WND 25036/1057 PRESRR T00890061 $
KJXN 251056Z AUTO 26022G29KT 10SM BKN017 BKN024 OVC034 07/04 A2958 RMK AO2 PK WND 24035/1020 PRESRR SLP022 T00670044
KFWA 251054Z 26028G38KT 10SM BKN022 OVC030 06/02 A2974 RMK AO2 PK WND 25041/0958 SLP076 T00560017 $
KDTW 251053Z 22017KT 10SM SCT007 SCT015 BKN060 09/08 A2954 RMK AO2 RAB0957E25 SLP004 P0001 T00890078 $
KFDY 251053Z AUTO 25022G31KT 10SM BKN021 BKN027 09/05 A2968 RMK AO2 PK WND 26048/0956 RAE09 SLP049 P0001 T00940050
KTDZ 251053Z AUTO 25027G35KT 11/06 A2962 RMK AO2 PK WND 26037/1050 RAB03E18 SLP032 P0000 T01060061 $
KCLE 251051Z 22014KT 7SM -RA FEW016 BKN022 OVC028 15/12 A2961 RMK AO2 RAB51 SLP029 P0000 T01500122 $

alt : Satellite

alt : TFRs